Time;durP1;ratioP1;P1;durP2;ratioP2;P2;SDS_P1;SDS_P2;PMS_P1;PMS_P2;Temp;Humidity;BMP_temperature;BMP_pressure;BME280_temperature;BME280_humidity;BME280_pressure;Samples;Min_cycle;Max_cycle;Signal;HPM_P1;HPM_P2
2022/12/10 00:02:17;;;;;;;38.47;16.98;;;0.30;81.70;;;;;;5086785;28;20135;-70
2022/12/10 00:04:44;;;;;;;36.25;14.55;;;0.30;81.80;;;;;;5076788;28;20049;-69
2022/12/10 00:07:12;;;;;;;43.40;16.07;;;0.30;81.80;;;;;;5079344;28;20048;-69
2022/12/10 00:09:39;;;;;;;38.15;15.27;;;0.30;81.90;;;;;;5083456;28;20864;-70
2022/12/10 00:12:07;;;;;;;42.05;15.50;;;0.30;81.80;;;;;;5091516;28;20155;-69
2022/12/10 00:14:34;;;;;;;41.38;15.45;;;0.30;82.00;;;;;;5088629;28;20049;-70
2022/12/10 00:17:02;;;;;;;43.00;17.55;;;0.30;82.00;;;;;;5082623;28;20041;-69
2022/12/10 00:19:30;;;;;;;42.10;16.87;;;0.30;82.00;;;;;;5090125;28;20118;-70
2022/12/10 00:21:57;;;;;;;43.00;17.40;;;0.30;82.00;;;;;;5088442;28;20246;-69
2022/12/10 00:24:24;;;;;;;40.78;17.13;;;0.30;82.10;;;;;;5085404;28;20521;-69
2022/12/10 00:26:51;;;;;;;38.95;14.77;;;0.30;82.10;;;;;;5087039;28;20137;-69
2022/12/10 00:29:19;;;;;;;40.88;15.82;;;0.30;82.10;;;;;;5063659;28;20485;-70
2022/12/10 00:31:46;;;;;;;38.73;15.70;;;0.30;82.00;;;;;;5091109;28;20060;-70
2022/12/10 00:34:13;;;;;;;36.75;14.55;;;0.30;82.00;;;;;;5088102;28;20349;-70
2022/12/10 00:36:43;;;;;;;43.47;15.55;;;0.30;82.00;;;;;;5063089;28;20506;-70
2022/12/10 00:39:13;;;;;;;40.20;15.23;;;0.30;82.10;;;;;;5090538;28;20138;-69
2022/12/10 00:41:39;;;;;;;39.28;15.40;;;0.30;82.00;;;;;;5071713;28;20045;-70
2022/12/10 00:44:07;;;;;;;40.83;15.73;;;0.30;82.00;;;;;;5075917;28;21690;-69
2022/12/10 00:46:35;;;;;;;41.20;15.45;;;0.30;82.10;;;;;;5087593;28;20243;-69
2022/12/10 00:49:02;;;;;;;40.00;14.23;;;0.30;82.00;;;;;;5082418;28;20143;-70
2022/12/10 00:51:30;;;;;;;40.67;14.43;;;0.30;82.10;;;;;;5089522;28;20040;-70
2022/12/10 00:53:58;;;;;;;44.58;17.40;;;0.30;82.10;;;;;;5067531;28;20160;-70
2022/12/10 00:56:28;;;;;;;39.43;16.70;;;0.30;82.10;;;;;;5053476;28;20045;-70
2022/12/10 00:58:56;;;;;;;40.03;15.50;;;0.30;82.00;;;;;;5059640;28;20274;-70
2022/12/10 01:01:26;;;;;;;45.30;17.30;;;0.30;82.00;;;;;;5084003;28;20510;-70
2022/12/10 01:03:57;;;;;;;38.33;14.98;;;0.30;82.00;;;;;;5071702;28;20041;-69
2022/12/10 01:06:28;;;;;;;38.38;14.55;;;0.30;81.90;;;;;;5090056;28;20053;-70
2022/12/10 01:08:58;;;;;;;40.70;15.90;;;0.30;81.80;;;;;;5083717;28;20052;-70
2022/12/10 01:11:30;;;;;;;38.28;15.43;;;0.20;81.90;;;;;;5085632;28;20251;-69
2022/12/10 01:13:58;;;;;;;38.90;15.27;;;0.20;81.90;;;;;;5088582;28;20054;-70
2022/12/10 01:16:25;;;;;;;39.85;16.10;;;0.20;81.90;;;;;;5061428;28;20048;-69
2022/12/10 01:18:55;;;;;;;42.63;16.95;;;0.20;81.90;;;;;;5088473;28;20076;-69
2022/12/10 01:21:23;;;;;;;44.93;16.83;;;0.20;81.90;;;;;;5063019;28;20140;-70
2022/12/10 01:23:52;;;;;;;39.25;15.82;;;0.20;81.90;;;;;;5050991;28;20956;-69
2022/12/10 01:26:22;;;;;;;43.90;16.48;;;0.20;81.90;;;;;;5086173;28;20053;-70
2022/12/10 01:28:48;;;;;;;42.55;16.48;;;0.20;81.90;;;;;;5088360;28;20475;-70
2022/12/10 01:31:18;;;;;;;44.05;16.60;;;0.20;81.80;;;;;;5089099;28;20048;-70
2022/12/10 01:33:45;;;;;;;37.47;14.03;;;0.10;81.80;;;;;;5088916;28;20140;-69
2022/12/10 01:36:16;;;;;;;41.17;15.43;;;0.20;81.80;;;;;;5088658;28;20263;-70
2022/12/10 01:38:44;;;;;;;42.35;15.77;;;0.10;81.80;;;;;;5088718;28;20514;-69
2022/12/10 01:41:16;;;;;;;45.58;17.10;;;0.00;81.70;;;;;;5071632;28;20049;-69
2022/12/10 01:43:55;;;;;;;40.85;16.20;;;0.00;81.80;;;;;;5088652;28;20040;-69
2022/12/10 01:46:24;;;;;;;42.57;16.37;;;0.00;81.80;;;;;;5070179;28;20048;-69
2022/12/10 01:48:51;;;;;;;42.13;16.80;;;0.00;81.90;;;;;;5090034;28;20795;-71
2022/12/10 01:51:21;;;;;;;41.58;15.27;;;0.00;81.90;;;;;;5088607;28;20734;-70
2022/12/10 01:53:48;;;;;;;41.30;16.33;;;0.00;81.90;;;;;;5068322;28;20053;-69
2022/12/10 01:56:17;;;;;;;44.83;16.58;;;0.00;81.90;;;;;;5072646;28;20120;-69
2022/12/10 01:58:45;;;;;;;38.80;15.77;;;0.00;81.90;;;;;;5051961;28;20504;-69
2022/12/10 02:01:15;;;;;;;43.10;15.45;;;0.00;81.80;;;;;;5089790;28;20340;-69
2022/12/10 02:03:53;;;;;;;40.75;16.23;;;0.00;81.80;;;;;;5086955;28;20059;-69
2022/12/10 02:06:38;;;;;;;41.58;16.15;;;0.00;81.90;;;;;;5071693;28;20080;-69
2022/12/10 02:09:19;;;;;;;43.45;16.17;;;0.00;81.90;;;;;;5087994;28;20502;-69
2022/12/10 02:11:54;;;;;;;40.30;16.77;;;-0.10;81.90;;;;;;5080538;28;20048;-69
2022/12/10 02:14:30;;;;;;;44.88;15.98;;;-0.10;82.00;;;;;;5082812;28;20254;-70
2022/12/10 02:17:03;;;;;;;45.13;16.95;;;-0.10;81.90;;;;;;5071687;28;20598;-70
2022/12/10 02:19:51;;;;;;;43.05;16.52;;;-0.10;82.00;;;;;;5092030;28;20045;-69
2022/12/10 02:22:26;;;;;;;42.72;16.33;;;-0.10;81.90;;;;;;5073417;28;20495;-69
2022/12/10 02:24:56;;;;;;;46.23;16.47;;;-0.10;82.00;;;;;;5074967;28;20140;-69
2022/12/10 02:27:28;;;;;;;44.72;16.98;;;-0.10;82.00;;;;;;5091419;28;20298;-70
2022/12/10 02:30:00;;;;;;;44.92;17.05;;;-0.10;82.00;;;;;;5074292;28;20045;-69
2022/12/10 02:32:33;;;;;;;45.42;17.33;;;-0.10;82.00;;;;;;5074520;28;20422;-69
2022/12/10 02:35:07;;;;;;;46.85;17.55;;;-0.10;82.00;;;;;;5073733;28;20059;-69
2022/12/10 02:37:37;;;;;;;46.20;17.47;;;-0.10;82.00;;;;;;5090944;28;20053;-70
2022/12/10 02:40:09;;;;;;;48.67;18.27;;;-0.10;82.00;;;;;;5073236;28;20311;-70
2022/12/10 02:42:44;;;;;;;41.97;15.63;;;-0.10;82.00;;;;;;5074989;28;20144;-72
2022/12/10 02:45:13;;;;;;;47.35;17.13;;;-0.20;82.00;;;;;;5091450;28;20059;-72
2022/12/10 02:47:42;;;;;;;38.72;16.35;;;-0.20;82.10;;;;;;5074287;28;20080;-72
2022/12/10 02:50:12;;;;;;;40.73;15.10;;;-0.20;82.10;;;;;;5091118;28;20568;-72
2022/12/10 02:52:40;;;;;;;43.80;16.73;;;-0.30;82.10;;;;;;5074784;28;20247;-72
2022/12/10 02:55:12;;;;;;;48.80;17.15;;;-0.30;82.20;;;;;;5088164;28;20048;-72
2022/12/10 02:57:46;;;;;;;42.92;17.38;;;-0.30;82.20;;;;;;5067178;28;20139;-69
2022/12/10 03:00:21;;;;;;;51.72;18.85;;;-0.30;82.20;;;;;;5065422;28;20052;-69
2022/12/10 03:03:14;;;;;;;47.97;18.00;;;-0.30;82.30;;;;;;5103974;28;20131;-70
2022/12/10 03:05:47;;;;;;;45.67;17.05;;;-0.30;82.30;;;;;;5105069;28;20295;-70
2022/12/10 03:08:17;;;;;;;47.05;17.27;;;-0.30;82.30;;;;;;5069841;28;20102;-69
2022/12/10 03:10:52;;;;;;;46.53;17.60;;;-0.30;82.30;;;;;;5070646;28;20049;-70
2022/12/10 03:13:22;;;;;;;42.33;17.27;;;-0.30;82.30;;;;;;5103370;28;20049;-70
2022/12/10 03:15:54;;;;;;;51.13;18.03;;;-0.30;82.30;;;;;;5089453;28;20186;-70
2022/12/10 03:18:24;;;;;;;46.60;16.92;;;-0.30;82.40;;;;;;5088805;28;20361;-69
2022/12/10 03:20:54;;;;;;;45.28;16.88;;;-0.30;82.40;;;;;;5085863;28;20053;-69
2022/12/10 03:23:22;;;;;;;47.15;17.00;;;-0.30;82.40;;;;;;5077675;28;20052;-69
2022/12/10 03:26:15;;;;;;;44.17;16.98;;;-0.30;82.50;;;;;;5089708;28;20057;-70
2022/12/10 03:28:50;;;;;;;47.50;17.70;;;-0.40;82.60;;;;;;5073192;28;20127;-69
2022/12/10 03:31:21;;;;;;;42.92;15.82;;;-0.40;82.60;;;;;;5091930;28;20279;-69
2022/12/10 03:33:49;;;;;;;43.88;16.10;;;-0.40;82.70;;;;;;5091429;28;20056;-70
2022/12/10 03:36:19;;;;;;;41.45;15.88;;;-0.40;82.70;;;;;;5091976;28;20048;-71
2022/12/10 03:38:46;;;;;;;42.70;15.88;;;-0.30;82.70;;;;;;5086537;28;20430;-70
2022/12/10 03:41:13;;;;;;;42.40;15.47;;;-0.30;82.70;;;;;;5069955;28;20036;-69
2022/12/10 03:43:55;;;;;;;42.95;16.65;;;-0.30;82.70;;;;;;5090544;28;21022;-69
2022/12/10 03:46:23;;;;;;;42.13;15.88;;;-0.30;82.70;;;;;;5090562;28;20079;-69
2022/12/10 03:48:50;;;;;;;45.20;16.33;;;-0.30;82.50;;;;;;5091249;28;20106;-70
2022/12/10 03:51:18;;;;;;;49.53;16.58;;;-0.30;82.60;;;;;;5071913;28;20099;-69
2022/12/10 03:53:45;;;;;;;43.20;16.23;;;-0.30;82.70;;;;;;5090491;28;20049;-69
2022/12/10 03:56:12;;;;;;;41.15;15.88;;;-0.30;82.70;;;;;;5091797;28;20258;-69
2022/12/10 03:58:39;;;;;;;45.63;17.75;;;-0.30;82.70;;;;;;5080179;28;20140;-70
2022/12/10 04:01:06;;;;;;;42.60;16.88;;;-0.30;82.60;;;;;;5087765;28;20048;-70
2022/12/10 04:03:36;;;;;;;44.78;15.68;;;-0.30;82.40;;;;;;5081953;28;20049;-69
2022/12/10 04:06:05;;;;;;;45.57;17.30;;;-0.30;82.30;;;;;;5086063;28;20489;-69
2022/12/10 04:08:32;;;;;;;47.28;16.55;;;-0.30;82.20;;;;;;5086806;28;20343;-70
2022/12/10 04:11:04;;;;;;;41.95;15.52;;;-0.40;82.10;;;;;;5086686;28;20056;-70
2022/12/10 04:16:29;;;;;;;41.15;15.95;;;-0.40;82.10;;;;;;5087476;28;20052;-70
2022/12/10 04:18:59;;;;;;;46.03;18.13;;;-0.50;82.20;;;;;;5084850;28;20553;-69
2022/12/10 04:27:00;;;;;;;46.67;17.23;;;-0.50;82.20;;;;;;5090131;28;20049;-69
2022/12/10 04:29:31;;;;;;;48.22;17.50;;;-0.60;82.20;;;;;;5090907;28;20110;-69
2022/12/10 04:31:59;;;;;;;51.37;18.77;;;-0.60;82.20;;;;;;5089705;28;20055;-69
2022/12/10 04:34:27;;;;;;;47.47;17.52;;;-0.60;82.30;;;;;;5075691;28;20275;-69
2022/12/10 04:36:55;;;;;;;49.13;17.77;;;-0.60;82.30;;;;;;5089546;28;20044;-69
2022/12/10 04:39:22;;;;;;;46.53;18.00;;;-0.60;82.40;;;;;;5086293;28;20049;-69
2022/12/10 04:41:50;;;;;;;46.67;17.10;;;-0.70;82.30;;;;;;5070427;28;20128;-70
2022/12/10 04:44:18;;;;;;;45.50;17.00;;;-0.70;82.30;;;;;;5071739;28;20102;-69
2022/12/10 04:46:46;;;;;;;47.17;17.13;;;-0.70;82.40;;;;;;5089878;28;20726;-70
2022/12/10 04:49:13;;;;;;;45.33;16.60;;;-0.70;82.40;;;;;;5072744;28;20045;-70
2022/12/10 04:51:42;;;;;;;43.17;15.95;;;-0.70;82.40;;;;;;5091156;28;20686;-69
2022/12/10 04:54:11;;;;;;;45.65;16.52;;;-0.70;82.50;;;;;;5090401;28;20063;-69
2022/12/10 04:56:39;;;;;;;47.93;16.23;;;-0.70;82.50;;;;;;5072433;28;20057;-70
2022/12/10 04:59:07;;;;;;;44.92;16.92;;;-0.80;82.40;;;;;;5085756;28;20240;-70
2022/12/10 05:01:34;;;;;;;46.78;17.38;;;-0.80;82.50;;;;;;5085870;28;20045;-70
2022/12/10 05:04:04;;;;;;;42.83;16.75;;;-0.90;82.50;;;;;;5082166;28;20053;-69
2022/12/10 05:06:31;;;;;;;47.03;18.17;;;-0.90;82.50;;;;;;5082571;28;20546;-69
2022/12/10 05:09:00;;;;;;;49.10;17.60;;;-0.90;82.60;;;;;;5069003;28;20538;-70
2022/12/10 05:11:30;;;;;;;48.33;17.27;;;-0.90;82.60;;;;;;5084644;28;20283;-70
2022/12/10 05:13:58;;;;;;;46.38;16.73;;;-0.90;82.60;;;;;;5083865;28;20160;-69
2022/12/10 05:16:27;;;;;;;48.00;16.90;;;-0.90;82.40;;;;;;5084827;28;20662;-70
2022/12/10 05:18:56;;;;;;;47.58;17.00;;;-0.90;82.50;;;;;;5086480;28;20135;-70
2022/12/10 05:23:27;;;;;;;47.67;17.53;;;-0.90;82.50;;;;;;5072240;28;20053;-69
2022/12/10 05:24:12;;;;;;;44.35;16.25;;;-0.90;82.50;;;;;;5071472;28;20792;-69
2022/12/10 05:26:39;;;;;;;47.75;17.45;;;-1.00;82.50;;;;;;5090405;28;20049;-69
2022/12/10 05:29:07;;;;;;;46.35;16.95;;;-1.00;82.50;;;;;;5084096;28;20183;-69
2022/12/10 05:31:34;;;;;;;40.30;15.85;;;-1.00;82.60;;;;;;5090423;28;20055;-69
2022/12/10 05:34:01;;;;;;;48.90;17.53;;;-1.00;82.60;;;;;;5090361;28;20139;-70
2022/12/10 05:36:30;;;;;;;44.83;17.05;;;-1.00;82.60;;;;;;5084310;28;20638;-70
2022/12/10 05:38:58;;;;;;;42.80;16.33;;;-1.00;82.60;;;;;;5068314;28;20041;-69
2022/12/10 05:41:30;;;;;;;48.88;17.83;;;-1.00;82.60;;;;;;5080785;28;20053;-69
2022/12/10 05:43:59;;;;;;;50.50;18.92;;;-1.00;82.60;;;;;;5087934;28;20098;-70
2022/12/10 05:46:29;;;;;;;41.20;16.57;;;-1.00;82.50;;;;;;5095653;28;20601;-70
2022/12/10 05:48:57;;;;;;;47.78;16.73;;;-1.00;82.50;;;;;;5090081;28;20648;-70
2022/12/10 05:51:26;;;;;;;44.65;16.58;;;-1.00;82.50;;;;;;5088812;28;20045;-69
2022/12/10 05:53:54;;;;;;;48.00;17.33;;;-1.00;82.50;;;;;;5090891;28;20052;-70
2022/12/10 05:56:23;;;;;;;45.78;18.23;;;-1.00;82.60;;;;;;5093721;28;20542;-69
2022/12/10 05:58:58;;;;;;;46.43;17.37;;;-1.00;82.60;;;;;;5092391;28;20045;-70
2022/12/10 06:01:28;;;;;;;51.80;17.98;;;-1.00;82.60;;;;;;5092317;28;20275;-70
2022/12/10 06:03:56;;;;;;;50.20;17.55;;;-1.00;82.70;;;;;;5094105;28;20055;-69
2022/12/10 06:06:25;;;;;;;46.67;16.95;;;-1.10;82.70;;;;;;5093530;28;20056;-70
2022/12/10 06:08:53;;;;;;;45.17;17.05;;;-1.10;82.80;;;;;;5093325;28;20119;-69
2022/12/10 06:11:20;;;;;;;45.73;16.90;;;-1.10;82.80;;;;;;5089674;28;20064;-70
2022/12/10 06:13:47;;;;;;;47.53;17.27;;;-1.10;82.80;;;;;;5086289;28;20267;-69
2022/12/10 06:16:16;;;;;;;46.05;16.75;;;-1.10;82.80;;;;;;5088798;28;20048;-69
2022/12/10 06:18:43;;;;;;;49.30;18.55;;;-1.10;82.80;;;;;;5083700;28;20053;-69
2022/12/10 06:21:14;;;;;;;45.67;15.88;;;-1.00;82.70;;;;;;5085439;28;20044;-70
2022/12/10 06:23:43;;;;;;;48.27;16.83;;;-1.00;82.80;;;;;;5079698;28;20049;-69
2022/12/10 06:26:13;;;;;;;52.65;17.65;;;-1.10;82.90;;;;;;4986214;28;20797;-69
2022/12/10 06:28:40;;;;;;;52.22;17.77;;;-1.10;82.90;;;;;;5077996;28;20057;-69
2022/12/10 06:31:09;;;;;;;50.63;17.92;;;-1.10;83.00;;;;;;5089437;28;20060;-69
2022/12/10 06:33:37;;;;;;;46.88;17.83;;;-1.10;82.90;;;;;;5084744;28;20563;-69
2022/12/10 06:36:06;;;;;;;54.70;18.53;;;-1.10;83.00;;;;;;5086183;28;20127;-69
2022/12/10 06:38:33;;;;;;;50.85;17.48;;;-1.10;83.00;;;;;;5088227;28;20240;-70
2022/12/10 06:41:04;;;;;;;50.17;17.63;;;-1.10;83.20;;;;;;5078095;28;20057;-69
2022/12/10 06:43:31;;;;;;;46.22;16.60;;;-1.10;83.10;;;;;;5069409;28;20044;-69
2022/12/10 06:45:58;;;;;;;51.08;18.25;;;-1.10;83.20;;;;;;5084333;28;20094;-69
2022/12/10 06:48:26;;;;;;;45.57;16.83;;;-1.10;83.10;;;;;;5080922;28;20544;-69
2022/12/10 06:50:56;;;;;;;44.28;17.20;;;-1.10;83.10;;;;;;5082987;28;20771;-69
2022/12/10 06:53:23;;;;;;;46.92;15.82;;;-1.10;83.20;;;;;;5083658;28;20072;-69
2022/12/10 06:55:50;;;;;;;43.85;15.85;;;-1.10;83.20;;;;;;5090880;28;20052;-69
2022/12/10 06:58:18;;;;;;;47.40;18.15;;;-1.10;83.20;;;;;;5085495;28;20049;-69
2022/12/10 07:00:45;;;;;;;51.60;17.90;;;-1.10;83.20;;;;;;5086339;28;20076;-69
2022/12/10 07:03:12;;;;;;;49.45;16.63;;;-1.10;83.20;;;;;;5086460;28;20327;-69
2022/12/10 07:05:38;;;;;;;46.25;16.80;;;-1.10;83.20;;;;;;5085209;28;20467;-69
2022/12/10 07:08:07;;;;;;;48.35;17.35;;;-1.10;83.20;;;;;;5081762;28;20049;-70
2022/12/10 07:10:37;;;;;;;52.70;17.52;;;-1.10;83.20;;;;;;5105895;28;20048;-69
2022/12/10 07:13:04;;;;;;;47.77;17.63;;;-1.10;83.20;;;;;;5083766;28;20595;-69
2022/12/10 07:15:33;;;;;;;47.17;17.58;;;-1.10;83.30;;;;;;5086873;28;20273;-69
2022/12/10 07:18:01;;;;;;;50.95;17.67;;;-1.10;83.30;;;;;;5085454;28;20049;-69
2022/12/10 07:20:30;;;;;;;49.75;17.95;;;-1.10;83.30;;;;;;5082148;28;20132;-70
2022/12/10 07:22:58;;;;;;;48.42;17.52;;;-1.10;83.50;;;;;;5077757;28;20037;-69
2022/12/10 07:25:27;;;;;;;52.40;17.87;;;-1.10;83.30;;;;;;5104378;28;20121;-69
2022/12/10 07:27:53;;;;;;;55.95;19.33;;;-1.10;83.30;;;;;;5084127;28;20245;-69
2022/12/10 07:30:20;;;;;;;57.35;21.08;;;-1.10;83.40;;;;;;5086804;28;20558;-69
2022/12/10 07:32:47;;;;;;;61.65;20.55;;;-1.10;83.40;;;;;;5074337;28;20176;-70
2022/12/10 07:35:15;;;;;;;57.25;19.67;;;-1.00;83.60;;;;;;5089292;28;20058;-69
2022/12/10 07:37:41;;;;;;;55.50;20.20;;;-1.00;83.60;;;;;;5081007;28;20538;-70
2022/12/10 07:40:10;;;;;;;58.22;21.77;;;-1.00;83.50;;;;;;5089557;28;20297;-70
2022/12/10 07:42:39;;;;;;;55.72;18.88;;;-1.00;83.60;;;;;;5087875;28;20086;-69
2022/12/10 07:45:08;;;;;;;56.00;19.25;;;-1.00;83.70;;;;;;5088986;28;20162;-70
2022/12/10 07:47:36;;;;;;;53.85;19.52;;;-0.90;83.60;;;;;;5100690;28;20041;-69
2022/12/10 07:50:04;;;;;;;50.50;18.33;;;-1.00;83.50;;;;;;5070367;28;20036;-70
2022/12/10 07:52:31;;;;;;;62.47;21.30;;;-1.00;83.60;;;;;;5090554;28;20263;-69
2022/12/10 07:54:59;;;;;;;54.33;19.35;;;-1.00;83.60;;;;;;5088038;28;20051;-70
2022/12/10 07:57:26;;;;;;;57.33;20.05;;;-1.00;83.60;;;;;;5088738;28;20059;-70
2022/12/10 07:59:54;;;;;;;52.10;19.15;;;-1.00;83.70;;;;;;5085578;28;20144;-70
2022/12/10 08:02:21;;;;;;;50.90;19.43;;;-1.00;83.90;;;;;;5088169;28;20135;-70
2022/12/10 08:04:48;;;;;;;55.92;19.60;;;-1.00;83.90;;;;;;5089797;28;20251;-69
2022/12/10 08:07:15;;;;;;;53.85;19.35;;;-1.00;83.90;;;;;;5086923;28;20579;-69
2022/12/10 08:09:43;;;;;;;47.25;17.35;;;-1.00;83.90;;;;;;5088467;28;20620;-69
2022/12/10 08:12:10;;;;;;;51.85;17.05;;;-1.00;84.00;;;;;;5088755;28;20161;-70
2022/12/10 08:14:37;;;;;;;49.03;17.00;;;-1.00;84.10;;;;;;5087708;28;20494;-70
2022/12/10 08:17:05;;;;;;;49.17;18.50;;;-1.10;84.00;;;;;;5087003;28;20347;-70
2022/12/10 08:19:32;;;;;;;58.42;19.33;;;-1.10;84.10;;;;;;5070249;28;20579;-70
2022/12/10 08:21:59;;;;;;;49.00;18.20;;;-1.00;84.10;;;;;;5090173;28;20060;-70
2022/12/10 08:24:26;;;;;;;49.17;18.45;;;-1.00;84.20;;;;;;5087858;28;20052;-70
2022/12/10 08:26:55;;;;;;;54.23;19.93;;;-1.00;84.10;;;;;;5087477;28;20048;-70
2022/12/10 08:29:23;;;;;;;36.72;12.95;;;-1.00;84.10;;;;;;5087615;28;20314;-69
2022/12/10 08:31:50;;;;;;;52.92;19.38;;;-1.00;84.10;;;;;;5078499;28;20147;-69
2022/12/10 08:34:20;;;;;;;50.33;18.25;;;-1.00;84.10;;;;;;5070305;28;20088;-69
2022/12/10 08:36:47;;;;;;;47.20;18.02;;;-1.00;84.10;;;;;;5088125;28;20072;-69
2022/12/10 08:39:16;;;;;;;52.40;19.47;;;-1.00;84.20;;;;;;5090383;28;20076;-70
2022/12/10 08:41:44;;;;;;;59.45;20.83;;;-1.00;84.20;;;;;;5090177;28;21154;-69
2022/12/10 08:44:11;;;;;;;54.03;18.23;;;-1.00;84.20;;;;;;5102497;28;20050;-68
2022/12/10 08:46:40;;;;;;;57.78;21.73;;;-1.00;84.30;;;;;;5086149;28;20106;-69
2022/12/10 08:49:07;;;;;;;52.25;19.48;;;-1.00;84.40;;;;;;5085311;28;20078;-70
2022/12/10 08:51:37;;;;;;;56.50;19.83;;;-0.90;84.30;;;;;;5085389;28;20508;-69
2022/12/10 08:54:06;;;;;;;63.05;22.25;;;-0.90;84.40;;;;;;5080352;28;20271;-69
2022/12/10 08:56:33;;;;;;;66.97;23.48;;;-0.90;84.50;;;;;;5083993;28;20337;-69
2022/12/10 08:59:01;;;;;;;62.67;20.17;;;-0.90;84.70;;;;;;5083934;28;20057;-69
2022/12/10 09:01:28;;;;;;;71.05;27.13;;;-0.80;84.70;;;;;;5087473;28;20099;-70
2022/12/10 09:03:55;;;;;;;61.93;23.63;;;-0.70;85.00;;;;;;5086298;28;20495;-69
2022/12/10 09:06:24;;;;;;;68.10;24.55;;;-0.70;84.90;;;;;;5084672;28;20291;-71
2022/12/10 09:08:55;;;;;;;62.08;23.13;;;-0.70;85.00;;;;;;5085764;28;20052;-70
2022/12/10 09:11:24;;;;;;;63.17;22.35;;;-0.70;84.90;;;;;;5087102;28;20048;-70
2022/12/10 09:13:52;;;;;;;57.00;21.15;;;-0.70;84.90;;;;;;5082898;28;20076;-69
2022/12/10 09:16:19;;;;;;;36.43;12.73;;;-0.70;84.80;;;;;;5084647;28;20044;-70
2022/12/10 09:18:46;;;;;;;60.72;21.30;;;-0.70;84.90;;;;;;5085123;28;20657;-71
2022/12/10 09:21:18;;;;;;;56.22;19.95;;;-0.70;84.70;;;;;;5082832;28;20051;-71
2022/12/10 09:23:45;;;;;;;53.35;20.73;;;-0.70;84.70;;;;;;5084540;28;20049;-70
2022/12/10 09:26:15;;;;;;;56.17;18.88;;;-0.70;84.80;;;;;;5087629;28;20129;-69
2022/12/10 09:28:44;;;;;;;56.57;21.10;;;-0.70;84.70;;;;;;5080769;28;20110;-70
2022/12/10 09:31:12;;;;;;;60.90;22.58;;;-0.70;84.80;;;;;;5084459;28;20272;-72
2022/12/10 09:33:40;;;;;;;58.03;21.00;;;-0.70;84.80;;;;;;5087438;28;20079;-71
2022/12/10 09:36:09;;;;;;;66.10;26.42;;;-0.70;84.90;;;;;;5084893;28;20120;-70
2022/12/10 09:38:38;;;;;;;56.90;20.90;;;-0.70;85.20;;;;;;5080286;28;20053;-70
2022/12/10 09:41:16;;;;;;;58.17;19.87;;;-0.70;85.00;;;;;;5083166;28;20063;-70
2022/12/10 09:43:52;;;;;;;59.42;21.70;;;-0.70;85.10;;;;;;5066141;28;20274;-71
2022/12/10 09:46:26;;;;;;;60.45;20.50;;;-0.70;85.00;;;;;;5060275;28;20584;-70
2022/12/10 09:49:06;;;;;;;62.85;20.45;;;-0.70;85.00;;;;;;5077041;28;20144;-70
2022/12/10 09:51:38;;;;;;;62.30;20.35;;;-0.70;85.10;;;;;;5085494;28;20049;-70
2022/12/10 09:54:12;;;;;;;51.93;17.47;;;-0.70;85.10;;;;;;5079488;28;20768;-70
2022/12/10 09:56:40;;;;;;;62.85;21.65;;;-0.70;85.10;;;;;;5078787;28;20276;-70
2022/12/10 09:59:20;;;;;;;61.10;22.17;;;-0.70;85.10;;;;;;5074684;28;20514;-69
2022/12/10 10:01:50;;;;;;;60.20;20.40;;;-0.70;85.30;;;;;;5085655;28;20045;-70
2022/12/10 10:04:17;;;;;;;64.68;22.98;;;-0.70;85.30;;;;;;5085270;28;20148;-69
2022/12/10 10:06:44;;;;;;;51.67;19.03;;;-0.70;85.40;;;;;;5085783;28;20051;-69
2022/12/10 10:09:14;;;;;;;57.17;20.42;;;-0.70;85.40;;;;;;5077715;28;20363;-70
2022/12/10 10:11:42;;;;;;;56.30;19.50;;;-0.70;85.40;;;;;;5082538;28;20074;-70
2022/12/10 10:14:17;;;;;;;63.25;21.00;;;-0.70;85.40;;;;;;5078359;28;20092;-70
2022/12/10 10:16:50;;;;;;;57.28;19.42;;;-0.70;85.50;;;;;;5083511;28;20076;-70
2022/12/10 10:19:22;;;;;;;60.43;19.27;;;-0.60;85.50;;;;;;5086247;28;20127;-69
2022/12/10 10:21:51;;;;;;;52.33;18.35;;;-0.60;85.50;;;;;;5082416;28;20352;-71
2022/12/10 10:24:20;;;;;;;61.30;21.35;;;-0.60;85.70;;;;;;5084202;28;20124;-71
2022/12/10 10:26:49;;;;;;;64.47;20.30;;;-0.60;85.70;;;;;;5086935;28;20047;-72
2022/12/10 10:29:20;;;;;;;64.97;21.65;;;-0.60;85.70;;;;;;5082643;28;20102;-71
2022/12/10 10:32:12;;;;;;;66.10;22.97;;;-0.60;85.70;;;;;;5083525;28;20049;-71
2022/12/10 10:34:40;;;;;;;69.47;24.50;;;-0.50;85.80;;;;;;5086520;28;20262;-71
2022/12/10 10:37:21;;;;;;;57.92;19.05;;;-0.50;85.80;;;;;;5086865;28;20728;-73
2022/12/10 10:39:50;;;;;;;68.80;23.25;;;-0.50;85.80;;;;;;5069499;28;20057;-72
2022/12/10 10:42:29;;;;;;;60.60;20.15;;;-0.50;85.90;;;;;;5087206;28;20087;-72
2022/12/10 10:44:57;;;;;;;59.63;18.33;;;-0.50;85.90;;;;;;5066731;28;20510;-71
2022/12/10 10:47:27;;;;;;;63.35;20.63;;;-0.50;85.80;;;;;;5084876;28;20275;-70
2022/12/10 10:49:55;;;;;;;60.28;20.30;;;-0.50;85.90;;;;;;5085736;28;20057;-71
2022/12/10 10:52:23;;;;;;;53.30;17.33;;;-0.50;85.90;;;;;;5085210;28;20053;-71
2022/12/10 10:54:50;;;;;;;53.38;18.13;;;-0.50;85.90;;;;;;5083499;28;20494;-70
2022/12/10 10:57:24;;;;;;;58.80;18.90;;;-0.50;85.90;;;;;;5084834;28;20159;-70
2022/12/10 10:59:54;;;;;;;62.00;19.58;;;-0.50;85.90;;;;;;5082308;28;20291;-70
2022/12/10 11:02:30;;;;;;;56.95;20.38;;;-0.50;86.00;;;;;;4981582;27;20101;-70
2022/12/10 11:05:05;;;;;;;55.55;19.55;;;-0.40;86.00;;;;;;5083251;28;20127;-70
2022/12/10 11:07:35;;;;;;;57.45;19.90;;;-0.40;86.00;;;;;;5086474;28;20561;-70
2022/12/10 11:10:04;;;;;;;55.17;18.67;;;-0.40;86.20;;;;;;5065554;28;20178;-70
2022/12/10 11:12:35;;;;;;;56.42;19.58;;;-0.40;86.10;;;;;;5081476;28;20856;-71
2022/12/10 11:15:14;;;;;;;50.05;18.00;;;-0.30;86.10;;;;;;5085991;28;20131;-72
2022/12/10 11:17:49;;;;;;;58.35;18.95;;;-0.30;86.10;;;;;;5085501;28;20620;-71
2022/12/10 11:20:19;;;;;;;63.47;20.23;;;-0.30;86.10;;;;;;5082788;28;20987;-71
2022/12/10 11:22:51;;;;;;;51.13;18.13;;;-0.30;86.10;;;;;;5067538;28;20266;-71
2022/12/10 11:25:20;;;;;;;54.47;18.27;;;-0.30;86.10;;;;;;5097379;28;20368;-71
2022/12/10 11:27:55;;;;;;;59.67;18.58;;;-0.30;86.10;;;;;;5081160;28;20202;-71
2022/12/10 11:30:24;;;;;;;56.92;19.40;;;-0.30;86.10;;;;;;5067509;28;20048;-71
2022/12/10 11:33:08;;;;;;;52.65;18.30;;;-0.30;86.10;;;;;;5086298;28;20048;-71
2022/12/10 11:35:50;;;;;;;57.47;18.50;;;-0.30;86.10;;;;;;5068538;28;20395;-71
2022/12/10 11:38:24;;;;;;;60.28;19.58;;;-0.20;86.20;;;;;;5086460;28;20259;-71
2022/12/10 11:41:00;;;;;;;54.35;18.65;;;-0.20;86.20;;;;;;5083851;28;20145;-71
2022/12/10 11:43:39;;;;;;;58.33;20.23;;;-0.20;86.30;;;;;;5085508;28;20080;-72
2022/12/10 11:46:22;;;;;;;53.10;18.98;;;-0.20;86.30;;;;;;5084549;28;20052;-71
2022/12/10 11:49:02;;;;;;;54.73;18.07;;;-0.20;86.30;;;;;;5082718;28;20147;-70
2022/12/10 11:51:37;;;;;;;51.17;18.48;;;-0.10;86.20;;;;;;5084075;28;20795;-70
2022/12/10 11:54:21;;;;;;;59.90;20.08;;;-0.20;86.20;;;;;;5070178;28;20056;-71
2022/12/10 11:56:53;;;;;;;55.60;19.67;;;-0.10;86.30;;;;;;5084613;28;20510;-71
2022/12/10 11:59:27;;;;;;;46.60;16.40;;;-0.10;86.30;;;;;;5087055;28;20564;-71
2022/12/10 12:02:21;;;;;;;53.73;19.87;;;-0.10;86.20;;;;;;5087872;28;20049;-71
2022/12/10 12:05:08;;;;;;;53.45;18.33;;;-0.10;86.20;;;;;;5087257;28;20339;-70
2022/12/10 12:07:41;;;;;;;62.40;22.20;;;-0.10;86.20;;;;;;5084743;28;20509;-70
2022/12/10 12:10:23;;;;;;;64.40;20.90;;;-0.10;86.30;;;;;;5085695;28;20115;-71
2022/12/10 12:12:56;;;;;;;71.70;22.35;;;-0.10;86.40;;;;;;5086074;28;20045;-70
2022/12/10 12:15:29;;;;;;;63.23;19.93;;;-0.10;86.50;;;;;;5085855;28;20133;-70
2022/12/10 12:18:00;;;;;;;60.67;21.05;;;-0.10;86.50;;;;;;5085942;28;20335;-70
2022/12/10 12:20:34;;;;;;;64.03;20.33;;;-0.10;86.40;;;;;;5085646;28;20061;-69
2022/12/10 12:23:10;;;;;;;67.03;20.92;;;-0.10;86.40;;;;;;5089039;28;20052;-70
2022/12/10 12:25:41;;;;;;;65.07;19.63;;;-0.10;86.30;;;;;;5083597;28;20055;-71
2022/12/10 12:28:15;;;;;;;62.00;20.03;;;-0.10;86.30;;;;;;5086881;28;20079;-71
2022/12/10 12:30:45;;;;;;;68.82;20.05;;;0.00;86.40;;;;;;5083999;28;20255;-69
2022/12/10 12:33:20;;;;;;;64.70;20.10;;;-0.10;86.30;;;;;;5071616;28;20542;-71
2022/12/10 12:35:52;;;;;;;57.60;17.52;;;-0.10;86.40;;;;;;5065882;28;20041;-70
2022/12/10 12:38:28;;;;;;;66.07;20.00;;;0.00;86.40;;;;;;5086868;28;20114;-70
2022/12/10 12:41:01;;;;;;;59.70;18.77;;;0.00;86.40;;;;;;5089335;28;20609;-71
2022/12/10 12:43:43;;;;;;;71.80;22.80;;;0.00;86.40;;;;;;5083518;28;20350;-69
2022/12/10 12:46:17;;;;;;;69.43;20.65;;;0.00;86.40;;;;;;5087472;28;20056;-70
2022/12/10 12:48:52;;;;;;;72.28;22.23;;;0.00;86.30;;;;;;5089239;28;20136;-69
2022/12/10 12:51:25;;;;;;;78.85;23.38;;;-0.10;86.30;;;;;;5084225;28;20477;-68
2022/12/10 12:53:52;;;;;;;73.60;22.23;;;-0.10;86.40;;;;;;5085951;28;20102;-69